createdAt,value
2018-09-06T00:00:03.358Z,93.00
2018-09-06T00:02:32.977Z,93.00
2018-09-06T00:05:02.656Z,93.30
2018-09-06T00:07:32.410Z,93.20
2018-09-06T00:10:02.017Z,93.10
2018-09-06T00:12:31.642Z,93.20
2018-09-06T00:15:01.258Z,93.10
2018-09-06T00:17:30.855Z,93.20
2018-09-06T00:20:00.508Z,93.30
2018-09-06T00:22:30.129Z,93.10
2018-09-06T00:24:59.724Z,93.00
2018-09-06T00:27:29.354Z,92.90
2018-09-06T00:29:58.951Z,93.00
2018-09-06T00:32:28.594Z,92.70
2018-09-06T00:34:58.332Z,92.60
2018-09-06T00:37:27.976Z,92.50
2018-09-06T00:39:57.695Z,92.40
2018-09-06T00:42:27.334Z,92.50
2018-09-06T00:44:57.100Z,92.30
2018-09-06T00:47:27.012Z,92.20
2018-09-06T00:49:56.677Z,92.30
2018-09-06T00:52:26.334Z,92.30
2018-09-06T00:54:56.117Z,92.20
2018-09-06T00:57:25.666Z,92.30
2018-09-06T00:59:55.376Z,92.40
2018-09-06T01:02:25.019Z,92.20
2018-09-06T01:04:54.601Z,92.60
2018-09-06T01:07:24.330Z,92.60
2018-09-06T01:09:53.949Z,92.60
2018-09-06T01:12:23.591Z,92.30
2018-09-06T01:14:53.267Z,92.10
2018-09-06T01:17:22.848Z,92.20
2018-09-06T01:19:52.556Z,92.40
2018-09-06T01:22:22.372Z,92.60
2018-09-06T01:24:52.007Z,92.90
2018-09-06T01:27:21.638Z,92.90
2018-09-06T01:29:51.374Z,92.70
2018-09-06T01:32:21.028Z,93.00
2018-09-06T01:34:50.635Z,93.20
2018-09-06T01:37:20.320Z,93.50
2018-09-06T01:39:49.856Z,93.70
2018-09-06T01:42:19.447Z,93.70
2018-09-06T01:44:49.091Z,93.60
2018-09-06T01:47:18.797Z,93.50
2018-09-06T01:49:48.452Z,93.70
2018-09-06T01:52:18.036Z,93.80
2018-09-06T01:54:47.687Z,93.80
2018-09-06T01:57:17.318Z,93.80
2018-09-06T01:59:46.916Z,93.80
2018-09-06T02:02:17.238Z,93.50
2018-09-06T02:04:46.871Z,93.40
2018-09-06T02:07:16.465Z,93.50
2018-09-06T02:09:46.129Z,93.70
2018-09-06T02:12:15.681Z,93.60
2018-09-06T02:14:45.354Z,93.50
2018-09-06T02:17:15.127Z,93.50
2018-09-06T02:19:44.707Z,93.60
2018-09-06T02:22:14.430Z,93.60
2018-09-06T02:24:44.048Z,93.50
2018-09-06T02:27:13.638Z,93.70
2018-09-06T02:29:43.323Z,93.70
2018-09-06T02:32:13.022Z,93.70
2018-09-06T02:34:42.664Z,93.70
2018-09-06T02:37:12.349Z,93.70
2018-09-06T02:39:42.014Z,93.80
2018-09-06T02:42:11.616Z,93.80
2018-09-06T02:44:41.265Z,93.80
2018-09-06T02:47:10.817Z,94.00
2018-09-06T02:49:45.487Z,93.90
2018-09-06T02:52:15.145Z,93.80
2018-09-06T02:54:44.720Z,93.70
2018-09-06T02:57:14.446Z,93.90
2018-09-06T02:59:46.687Z,94.00
2018-09-06T03:02:16.313Z,93.90
2018-09-06T03:04:46.083Z,93.80
2018-09-06T03:07:15.725Z,93.80
2018-09-06T03:09:45.426Z,93.60
2018-09-06T03:12:16.166Z,93.80
2018-09-06T03:14:47.335Z,93.80
2018-09-06T03:17:16.944Z,93.60
2018-09-06T03:19:46.597Z,93.90
2018-09-06T03:22:16.236Z,94.10
2018-09-06T03:24:46.328Z,94.30
2018-09-06T03:27:15.905Z,94.10
2018-09-06T03:29:45.577Z,94.20
2018-09-06T03:32:15.296Z,94.10
2018-09-06T03:34:50.500Z,94.10
2018-09-06T03:37:20.252Z,94.20
2018-09-06T03:39:49.845Z,94.20
2018-09-06T03:42:19.494Z,94.30
2018-09-06T03:44:49.155Z,94.00
2018-09-06T03:47:18.732Z,93.80
2018-09-06T03:49:48.514Z,94.20
2018-09-06T03:52:18.069Z,94.30
2018-09-06T03:54:47.720Z,94.50
2018-09-06T03:57:17.348Z,94.40
2018-09-06T03:59:47.587Z,94.40
2018-09-06T04:02:17.292Z,94.20
2018-09-06T04:04:46.889Z,94.20
2018-09-06T04:07:16.493Z,94.50
2018-09-06T04:09:46.161Z,94.50
2018-09-06T04:12:15.768Z,94.20
2018-09-06T04:14:45.389Z,93.90
2018-09-06T04:17:15.042Z,94.20
2018-09-06T04:19:44.702Z,94.10
2018-09-06T04:22:14.401Z,94.30
2018-09-06T04:24:44.043Z,94.20
2018-09-06T04:27:13.652Z,94.20
2018-09-06T04:29:43.329Z,94.00
2018-09-06T04:32:12.884Z,94.20
2018-09-06T04:34:42.486Z,93.80
2018-09-06T04:37:12.107Z,93.80
2018-09-06T04:39:42.072Z,94.20
2018-09-06T04:42:11.679Z,94.30
2018-09-06T04:44:41.344Z,93.90
2018-09-06T04:47:10.969Z,94.30
2018-09-06T04:49:40.727Z,94.10
2018-09-06T04:52:10.390Z,94.30
2018-09-06T04:54:39.953Z,94.20
2018-09-06T04:57:09.579Z,94.30
2018-09-06T04:59:39.231Z,94.60
2018-09-06T05:02:08.788Z,94.60
2018-09-06T05:04:38.395Z,94.50
2018-09-06T05:07:08.136Z,94.50
2018-09-06T05:09:37.791Z,94.60
2018-09-06T05:12:07.586Z,94.80
2018-09-06T05:14:37.216Z,94.50
2018-09-06T05:17:07.056Z,94.40
2018-09-06T05:19:36.687Z,94.50
2018-09-06T05:22:06.386Z,94.50
2018-09-06T05:24:36.074Z,94.50
2018-09-06T05:27:05.725Z,94.20
2018-09-06T05:29:35.406Z,94.30
2018-09-06T05:32:05.024Z,94.30
2018-09-06T05:34:34.647Z,94.10
2018-09-06T05:37:04.297Z,94.30
2018-09-06T05:39:33.889Z,94.50
2018-09-06T05:42:03.454Z,94.30
2018-09-06T05:44:33.027Z,94.10
2018-09-06T05:47:02.973Z,94.10
2018-09-06T05:49:32.625Z,94.10
2018-09-06T05:52:02.584Z,94.20
2018-09-06T05:54:32.183Z,94.30
2018-09-06T05:57:01.827Z,94.50
2018-09-06T05:59:31.457Z,94.50
2018-09-06T06:02:01.101Z,94.20
2018-09-06T06:04:30.632Z,94.20
2018-09-06T06:07:00.332Z,94.20
2018-09-06T06:09:30.041Z,94.10
2018-09-06T06:11:59.732Z,94.10
2018-09-06T06:14:29.309Z,94.30
2018-09-06T06:16:58.959Z,94.30
2018-09-06T06:19:28.559Z,94.10
2018-09-06T06:21:58.220Z,94.10
2018-09-06T06:24:27.812Z,94.10
2018-09-06T06:26:57.458Z,94.00
2018-09-06T06:29:27.108Z,94.20
2018-09-06T06:31:56.733Z,94.10
2018-09-06T06:34:26.399Z,94.00
2018-09-06T06:36:56.063Z,93.90
2018-09-06T06:39:25.736Z,94.20
2018-09-06T06:41:55.368Z,94.10
2018-09-06T06:44:25.129Z,94.00
2018-09-06T06:46:54.746Z,93.70
2018-09-06T06:49:24.511Z,93.80
2018-09-06T06:51:54.111Z,93.70
2018-09-06T06:54:23.826Z,93.60
2018-09-06T06:56:53.484Z,92.90
2018-09-06T06:59:23.045Z,93.30
2018-09-06T07:01:52.699Z,92.80
2018-09-06T07:04:22.424Z,93.30
2018-09-06T07:06:52.074Z,93.30
2018-09-06T07:09:21.728Z,92.70
2018-09-06T07:11:51.374Z,92.90
2018-09-06T07:14:21.043Z,92.80
2018-09-06T07:16:50.677Z,93.00
2018-09-06T07:19:20.332Z,92.20
2018-09-06T07:21:49.948Z,91.80
2018-09-06T07:24:19.604Z,91.80
2018-09-06T07:26:49.317Z,91.90
2018-09-06T07:29:18.918Z,91.60
2018-09-06T07:31:48.504Z,91.70
2018-09-06T07:34:18.153Z,91.80
2018-09-06T07:36:47.910Z,91.60
2018-09-06T07:39:17.522Z,91.50
2018-09-06T07:41:47.158Z,92.00
2018-09-06T07:44:16.802Z,91.50
2018-09-06T07:46:46.448Z,91.50
2018-09-06T07:49:16.082Z,91.40
2018-09-06T07:51:45.719Z,91.50
2018-09-06T07:54:15.418Z,91.90
2018-09-06T07:56:45.083Z,91.30
2018-09-06T07:59:14.620Z,91.50
2018-09-06T08:01:44.289Z,91.10
2018-09-06T08:04:13.949Z,91.20
2018-09-06T08:06:43.636Z,90.60
2018-09-06T08:09:13.755Z,90.80
2018-09-06T08:11:43.466Z,90.50
2018-09-06T08:14:13.127Z,90.40
2018-09-06T08:16:42.887Z,90.70
2018-09-06T08:19:12.665Z,90.40
2018-09-06T08:21:42.305Z,90.40
2018-09-06T08:24:11.894Z,91.10
2018-09-06T08:26:41.562Z,91.40
2018-09-06T08:29:11.249Z,91.00
2018-09-06T08:31:41.019Z,90.40
2018-09-06T08:34:13.056Z,91.00
2018-09-06T08:36:43.762Z,90.60
2018-09-06T08:39:13.660Z,91.20
2018-09-06T08:41:43.457Z,91.10
2018-09-06T08:44:13.164Z,90.60
2018-09-06T08:46:42.735Z,89.90
2018-09-06T08:49:12.347Z,90.10
2018-09-06T08:51:43.234Z,89.00
2018-09-06T08:54:12.827Z,90.30
2018-09-06T08:56:42.476Z,90.10
2018-09-06T08:59:12.170Z,90.80
2018-09-06T09:01:43.101Z,90.80
2018-09-06T09:04:12.828Z,90.50
2018-09-06T09:06:42.440Z,90.40
2018-09-06T09:09:14.166Z,90.30
2018-09-06T09:11:43.839Z,90.30
2018-09-06T09:14:13.470Z,90.10
2018-09-06T09:16:43.195Z,89.80
2018-09-06T09:19:12.887Z,88.70
2018-09-06T09:21:42.603Z,88.80
2018-09-06T09:24:12.239Z,88.70
2018-09-06T09:26:41.793Z,89.70
2018-09-06T09:29:11.419Z,88.30
2018-09-06T09:31:41.083Z,87.70
2018-09-06T09:34:10.782Z,88.80
2018-09-06T09:36:40.422Z,89.90
2018-09-06T09:39:10.803Z,89.40
2018-09-06T09:41:40.426Z,90.40
2018-09-06T09:44:10.188Z,88.30
2018-09-06T09:49:08.436Z,88.80
2018-09-06T09:51:38.011Z,89.40
2018-09-06T09:54:07.751Z,88.50
2018-09-06T09:56:37.404Z,86.50
2018-09-06T09:59:07.117Z,88.00
2018-09-06T10:01:44.173Z,86.70
2018-09-06T10:04:18.891Z,88.80
2018-09-06T10:06:53.863Z,87.00
2018-09-06T10:09:25.352Z,87.80
2018-09-06T10:11:55.051Z,88.20
2018-09-06T10:14:24.695Z,89.30
2018-09-06T10:16:54.486Z,88.30
2018-09-06T10:19:25.151Z,85.90
2018-09-06T10:21:54.848Z,86.10
2018-09-06T10:24:24.458Z,86.20
2018-09-06T10:26:54.332Z,86.90
2018-09-06T10:29:23.968Z,87.40
2018-09-06T10:31:53.586Z,88.40
2018-09-06T10:34:23.319Z,89.60
2018-09-06T10:36:52.908Z,89.00
2018-09-06T10:39:22.600Z,88.20
2018-09-06T10:41:52.302Z,86.90
2018-09-06T10:44:21.872Z,84.30
2018-09-06T10:46:51.590Z,86.00
2018-09-06T10:49:21.243Z,85.30
2018-09-06T10:51:50.878Z,84.00
2018-09-06T10:54:20.615Z,86.20
2018-09-06T10:56:50.351Z,84.70
2018-09-06T10:59:20.079Z,84.60
2018-09-06T11:01:49.714Z,85.90
2018-09-06T11:04:19.473Z,84.40
2018-09-06T11:06:49.718Z,85.10
2018-09-06T11:09:19.431Z,82.90
2018-09-06T11:11:49.040Z,84.20
2018-09-06T11:14:18.698Z,84.80
2018-09-06T11:16:48.329Z,82.40
2018-09-06T11:19:18.066Z,83.20
2018-09-06T11:21:47.789Z,84.20
2018-09-06T11:24:17.399Z,84.00
2018-09-06T11:26:46.958Z,83.30
2018-09-06T11:29:16.598Z,83.60
2018-09-06T11:31:46.261Z,84.60
2018-09-06T11:34:16.029Z,83.60
2018-09-06T11:36:45.680Z,84.60
2018-09-06T11:39:15.702Z,83.70
2018-09-06T11:41:45.462Z,84.00
2018-09-06T11:44:15.117Z,82.60
2018-09-06T11:46:44.887Z,82.10
2018-09-06T11:49:15.710Z,81.70
2018-09-06T11:51:45.465Z,80.40
2018-09-06T11:54:15.284Z,81.10
2018-09-06T11:56:44.859Z,80.10
2018-09-06T11:59:14.586Z,81.10
2018-09-06T12:01:44.512Z,81.50
2018-09-06T12:04:14.393Z,81.20
2018-09-06T12:06:44.130Z,80.50
2018-09-06T12:09:46.507Z,80.10
2018-09-06T12:12:16.291Z,81.60
2018-09-06T12:14:45.904Z,80.60
2018-09-06T12:17:15.572Z,82.40
2018-09-06T12:19:45.727Z,80.30
2018-09-06T12:22:15.404Z,82.20
2018-09-06T12:24:45.213Z,80.30
2018-09-06T12:27:14.974Z,78.80
2018-09-06T12:29:44.766Z,78.40
2018-09-06T12:32:14.643Z,76.00
2018-09-06T12:34:45.632Z,76.90
2018-09-06T12:37:15.962Z,77.60
2018-09-06T12:39:46.779Z,75.70
2018-09-06T12:42:17.780Z,74.80
2018-09-06T12:44:47.549Z,75.20
2018-09-06T12:47:17.200Z,75.10
2018-09-06T12:49:47.957Z,77.90
2018-09-06T12:52:17.646Z,75.20
2018-09-06T12:54:47.478Z,78.20
2018-09-06T12:57:17.592Z,76.10
2018-09-06T12:59:47.474Z,77.40
2018-09-06T13:02:17.189Z,76.40
2018-09-06T13:04:47.940Z,75.30
2018-09-06T13:07:17.682Z,75.30
2018-09-06T13:09:47.319Z,75.80
2018-09-06T13:12:17.039Z,75.80
2018-09-06T13:14:46.729Z,76.70
2018-09-06T13:17:16.296Z,74.30
2018-09-06T13:19:45.910Z,75.00
2018-09-06T13:22:16.018Z,74.10
2018-09-06T13:24:45.780Z,74.30
2018-09-06T13:27:15.914Z,74.00
2018-09-06T13:29:45.610Z,74.60
2018-09-06T13:32:15.231Z,76.60
2018-09-06T13:34:44.950Z,74.50
2018-09-06T13:37:14.599Z,74.50
2018-09-06T13:39:44.424Z,74.90
2018-09-06T13:42:14.059Z,75.50
2018-09-06T13:44:43.737Z,76.50
2018-09-06T13:47:13.449Z,78.20
2018-09-06T13:49:43.084Z,78.50
2018-09-06T13:52:12.691Z,77.90
2018-09-06T13:54:42.317Z,78.70
2018-09-06T13:57:12.016Z,76.90
2018-09-06T13:59:41.812Z,78.00
2018-09-06T14:02:11.519Z,77.90
2018-09-06T14:04:41.176Z,78.80
2018-09-06T14:07:10.857Z,77.30
2018-09-06T14:09:40.618Z,77.50
2018-09-06T14:12:10.279Z,79.20
2018-09-06T14:14:39.970Z,81.20
2018-09-06T14:17:09.618Z,81.50
2018-09-06T14:19:39.245Z,81.40
2018-09-06T14:22:08.825Z,79.00
2018-09-06T14:24:38.623Z,78.80
2018-09-06T14:27:08.292Z,80.10
2018-09-06T14:29:37.989Z,80.60
2018-09-06T14:32:07.700Z,79.50
2018-09-06T14:34:37.774Z,80.60
2018-09-06T14:37:07.731Z,80.00
2018-09-06T14:39:37.390Z,82.70
2018-09-06T14:42:07.082Z,82.70
2018-09-06T14:44:36.688Z,84.30
2018-09-06T14:47:06.470Z,82.70
2018-09-06T14:49:36.258Z,81.20
2018-09-06T14:52:05.912Z,82.30
2018-09-06T14:54:36.553Z,82.10
2018-09-06T14:57:06.701Z,81.70
2018-09-06T14:59:37.091Z,81.20
2018-09-06T15:02:07.130Z,79.60
2018-09-06T15:04:36.825Z,78.90
2018-09-06T15:07:06.571Z,80.10
2018-09-06T15:09:36.497Z,78.90
2018-09-06T15:12:06.281Z,79.10
2018-09-06T15:14:36.847Z,79.80
2018-09-06T15:17:06.612Z,79.30
2018-09-06T15:19:36.219Z,78.60
2018-09-06T15:22:06.110Z,78.70
2018-09-06T15:24:35.953Z,78.50
2018-09-06T15:27:05.922Z,78.90
2018-09-06T15:29:35.890Z,79.00
2018-09-06T15:32:06.011Z,80.20
2018-09-06T15:34:36.014Z,79.00
2018-09-06T15:37:06.434Z,79.00
2018-09-06T15:39:36.259Z,79.40
2018-09-06T15:42:06.241Z,80.00
2018-09-06T15:44:35.970Z,81.10
2018-09-06T15:47:05.804Z,80.90
2018-09-06T15:49:35.629Z,81.10
2018-09-06T15:52:05.947Z,80.50
2018-09-06T15:54:35.880Z,81.60
2018-09-06T15:57:06.307Z,81.10
2018-09-06T15:59:36.327Z,80.90
2018-09-06T16:02:06.473Z,80.70
2018-09-06T16:04:36.695Z,80.20
2018-09-06T16:07:07.116Z,80.80
2018-09-06T16:09:37.600Z,81.20
2018-09-06T16:12:07.908Z,80.70
2018-09-06T16:14:38.257Z,80.10
2018-09-06T16:17:08.470Z,80.30
2018-09-06T16:19:38.751Z,80.20
2018-09-06T16:22:09.116Z,80.30
2018-09-06T16:24:39.422Z,80.00
2018-09-06T16:27:09.859Z,80.90
2018-09-06T16:29:40.456Z,80.30
2018-09-06T16:32:11.031Z,80.40
2018-09-06T16:34:41.595Z,81.10
2018-09-06T16:37:12.108Z,81.10
2018-09-06T16:39:42.486Z,81.30
2018-09-06T16:42:12.946Z,81.60
2018-09-06T16:44:43.565Z,81.90
2018-09-06T16:47:13.956Z,82.20
2018-09-06T16:49:44.373Z,83.80
2018-09-06T16:52:16.704Z,85.60
2018-09-06T16:54:47.211Z,86.40
2018-09-06T16:57:18.595Z,86.80
2018-09-06T16:59:48.961Z,87.00
2018-09-06T17:02:19.993Z,87.50
2018-09-06T17:04:51.606Z,87.20
2018-09-06T17:07:22.627Z,87.60
2018-09-06T17:09:53.224Z,87.80
2018-09-06T17:12:24.012Z,87.70
2018-09-06T17:14:54.471Z,87.20
2018-09-06T17:17:25.510Z,87.40
2018-09-06T17:19:56.479Z,87.60
2018-09-06T17:22:26.866Z,87.50
2018-09-06T17:24:57.398Z,88.50
2018-09-06T17:27:28.238Z,88.50
2018-09-06T17:29:59.203Z,88.80
2018-09-06T17:32:29.661Z,90.00
2018-09-06T17:35:00.073Z,90.10
2018-09-06T17:37:30.671Z,90.20
2018-09-06T17:40:01.093Z,90.00
2018-09-06T17:42:32.878Z,89.90
2018-09-06T17:45:03.329Z,90.00
2018-09-06T17:47:33.881Z,90.30
2018-09-06T17:50:04.346Z,90.40
2018-09-06T17:52:34.804Z,90.30
2018-09-06T17:55:05.402Z,90.10
2018-09-06T17:57:36.386Z,90.50
2018-09-06T18:00:07.211Z,90.30
2018-09-06T18:02:37.682Z,90.20
2018-09-06T18:05:10.255Z,90.30
2018-09-06T18:07:42.424Z,90.60
2018-09-06T18:10:12.897Z,90.60
2018-09-06T18:12:43.500Z,90.30
2018-09-06T18:15:14.618Z,89.70
2018-09-06T18:17:48.752Z,89.70
2018-09-06T18:20:21.230Z,89.40
2018-09-06T18:22:52.288Z,90.50
2018-09-06T18:25:25.222Z,92.10
2018-09-06T18:27:55.770Z,92.50
2018-09-06T18:30:26.476Z,92.30
2018-09-06T18:32:57.323Z,92.80
2018-09-06T18:35:30.976Z,92.90
2018-09-06T18:38:01.792Z,92.60
2018-09-06T18:40:32.612Z,92.60
2018-09-06T18:43:03.550Z,92.30
2018-09-06T18:45:34.708Z,92.70
2018-09-06T18:48:05.913Z,92.60
2018-09-06T18:50:36.369Z,92.50
2018-09-06T18:53:06.894Z,92.50
2018-09-06T18:55:37.382Z,92.60
2018-09-06T18:58:08.043Z,93.10
2018-09-06T19:00:38.466Z,92.90
2018-09-06T19:03:10.282Z,93.10
2018-09-06T19:05:41.797Z,93.20
2018-09-06T19:08:12.443Z,93.00
2018-09-06T19:10:43.040Z,93.40
2018-09-06T19:13:13.535Z,94.30
2018-09-06T19:15:43.961Z,95.10
2018-09-06T19:18:14.517Z,95.30
2018-09-06T19:20:44.940Z,95.40
2018-09-06T19:23:15.547Z,95.60
2018-09-06T19:25:46.008Z,95.90
2018-09-06T19:28:16.485Z,95.70
2018-09-06T19:30:46.931Z,95.40
2018-09-06T19:33:17.462Z,95.00
2018-09-06T19:35:47.931Z,95.20
2018-09-06T19:38:18.403Z,94.70
2018-09-06T19:40:48.975Z,95.00
2018-09-06T19:43:19.544Z,94.90
2018-09-06T19:45:51.012Z,95.00
2018-09-06T19:48:21.462Z,95.20
2018-09-06T19:50:52.397Z,95.20
2018-09-06T19:53:22.898Z,95.30
2018-09-06T19:55:53.489Z,94.60
2018-09-06T19:58:24.016Z,94.50
2018-09-06T20:00:54.505Z,94.60
2018-09-06T20:03:24.997Z,94.60
2018-09-06T20:05:55.396Z,94.70
2018-09-06T20:08:25.951Z,94.80
2018-09-06T20:10:56.362Z,95.50
2018-09-06T20:13:27.606Z,95.30
2018-09-06T20:15:58.071Z,95.40
2018-09-06T20:18:29.582Z,95.50
2018-09-06T20:21:00.029Z,95.60
2018-09-06T20:23:31.091Z,95.30
2018-09-06T20:26:01.798Z,95.60
2018-09-06T20:28:32.288Z,95.90
2018-09-06T20:31:02.975Z,95.50
2018-09-06T20:33:33.512Z,95.70
2018-09-06T20:36:03.993Z,96.10
2018-09-06T20:38:34.465Z,95.70
2018-09-06T20:41:04.912Z,95.80
2018-09-06T20:43:35.507Z,95.30
2018-09-06T20:46:05.924Z,95.30
2018-09-06T20:48:36.323Z,95.40
2018-09-06T20:51:06.756Z,95.60
2018-09-06T20:53:37.146Z,95.70
2018-09-06T20:56:07.589Z,96.00
2018-09-06T20:58:38.078Z,95.90
2018-09-06T21:01:08.427Z,95.70
2018-09-06T21:03:38.791Z,95.80
2018-09-06T21:06:09.049Z,95.60
2018-09-06T21:08:39.224Z,95.40
2018-09-06T21:11:09.165Z,95.10
2018-09-06T21:13:39.549Z,95.40
2018-09-06T21:16:09.882Z,95.50
2018-09-06T21:18:40.178Z,95.70
2018-09-06T21:21:10.472Z,95.50
2018-09-06T21:23:40.121Z,95.30
2018-09-06T21:26:09.779Z,95.50
2018-09-06T21:28:39.445Z,95.50
2018-09-06T21:31:09.183Z,95.00
2018-09-06T21:33:38.838Z,94.70
2018-09-06T21:36:08.491Z,94.60
2018-09-06T21:38:38.151Z,94.70
2018-09-06T21:41:07.748Z,94.70
2018-09-06T21:43:37.545Z,95.20
2018-09-06T21:46:07.296Z,94.60
2018-09-06T21:48:36.908Z,94.70
2018-09-06T21:51:06.755Z,95.10
2018-09-06T21:53:36.379Z,94.70
2018-09-06T21:56:06.120Z,94.60
2018-09-06T21:58:35.739Z,94.10
2018-09-06T22:01:05.403Z,94.30
2018-09-06T22:03:40.014Z,93.90
2018-09-06T22:06:09.616Z,93.80
2018-09-06T22:08:39.330Z,94.10
2018-09-06T22:11:09.085Z,94.50
2018-09-06T22:13:38.670Z,94.30
2018-09-06T22:16:08.270Z,94.30
2018-09-06T22:18:37.906Z,94.40
2018-09-06T22:21:07.739Z,94.60
2018-09-06T22:23:37.479Z,94.60
2018-09-06T22:26:07.148Z,94.10
2018-09-06T22:28:36.712Z,94.10
2018-09-06T22:31:06.923Z,94.20
2018-09-06T22:33:36.859Z,94.60
2018-09-06T22:36:07.076Z,93.80
2018-09-06T22:38:36.670Z,94.10
2018-09-06T22:41:06.251Z,93.80
2018-09-06T22:43:35.899Z,94.00
2018-09-06T22:46:05.514Z,93.60
2018-09-06T22:48:35.272Z,94.40
2018-09-06T22:51:05.041Z,93.90
2018-09-06T22:53:35.273Z,93.80
2018-09-06T22:56:04.983Z,93.70
2018-09-06T22:58:34.684Z,93.70
2018-09-06T23:01:04.302Z,93.80
2018-09-06T23:03:39.681Z,94.30
2018-09-06T23:06:09.371Z,94.60
2018-09-06T23:08:39.024Z,94.90
2018-09-06T23:11:08.644Z,94.90
2018-09-06T23:13:38.394Z,94.90
2018-09-06T23:16:08.198Z,94.90
2018-09-06T23:18:37.856Z,94.90
2018-09-06T23:21:07.480Z,94.70
2018-09-06T23:23:37.071Z,94.60
2018-09-06T23:26:06.726Z,94.30
2018-09-06T23:28:36.449Z,94.60
2018-09-06T23:31:06.274Z,94.50
2018-09-06T23:33:35.881Z,94.60
2018-09-06T23:36:05.500Z,94.90
2018-09-06T23:38:35.130Z,95.00
2018-09-06T23:41:04.828Z,95.10
2018-09-06T23:43:34.642Z,95.20
2018-09-06T23:46:04.236Z,94.90
2018-09-06T23:48:33.851Z,95.10
2018-09-06T23:51:03.482Z,95.30
2018-09-06T23:53:33.086Z,95.30
2018-09-06T23:56:02.717Z,95.10
2018-09-06T23:58:32.344Z,95.20
